Time;durP1;ratioP1;P1;durP2;ratioP2;P2;SDS_P1;SDS_P2;PMS_P1;PMS_P2;Temp;Humidity;BMP_temperature;BMP_pressure;BME280_temperature;BME280_humidity;BME280_pressure;Samples;Min_cycle;Max_cycle;Signal;HPM_P1;HPM_P2
2023/03/14 00:01:55;;;;;;;3.90;2.80;;;11.40;22.50;;;;;;5027386;28;20480;-69
2023/03/14 00:04:21;;;;;;;3.50;3.00;;;11.40;22.00;;;;;;5028390;28;20619;-67
2023/03/14 00:06:49;;;;;;;3.80;2.43;;;11.40;21.50;;;;;;5029738;28;20572;-69
2023/03/14 00:09:15;;;;;;;3.10;1.63;;;11.50;23.80;;;;;;5030139;28;20201;-70
2023/03/14 00:11:40;;;;;;;4.53;1.90;;;11.40;20.30;;;;;;5027089;28;20440;-68
2023/03/14 00:14:06;;;;;;;3.03;1.90;;;11.40;23.10;;;;;;5030202;28;20498;-65
2023/03/14 00:16:31;;;;;;;1.70;1.60;;;11.40;22.50;;;;;;5028644;28;20197;-68
2023/03/14 00:18:59;;;;;;;2.60;1.40;;;11.40;16.00;;;;;;5028701;28;20288;-69
2023/03/14 00:21:25;;;;;;;3.77;1.60;;;11.40;9.60;;;;;;5028977;28;20435;-69
2023/03/14 00:23:51;;;;;;;3.10;1.50;;;11.40;5.20;;;;;;5029551;28;20440;-69
2023/03/14 00:26:19;;;;;;;1.77;1.10;;;11.50;2.80;;;;;;5030711;28;20219;-69
2023/03/14 00:28:46;;;;;;;2.03;1.10;;;11.50;1.00;;;;;;5027505;28;20485;-71
2023/03/14 00:31:14;;;;;;;1.93;1.20;;;11.60;1.00;;;;;;5029734;28;20470;-69
2023/03/14 00:33:40;;;;;;;2.20;1.23;;;11.70;1.00;;;;;;5029320;28;20448;-69
2023/03/14 00:36:11;;;;;;;2.57;1.13;;;11.70;1.00;;;;;;5029520;28;20447;-70
2023/03/14 00:38:38;;;;;;;2.17;1.30;;;11.80;1.00;;;;;;5028677;28;20270;-69
2023/03/14 00:41:06;;;;;;;1.63;1.10;;;11.80;1.00;;;;;;5044677;28;20468;-69
2023/03/14 00:43:31;;;;;;;2.80;1.20;;;11.90;1.00;;;;;;5027934;28;20767;-68
2023/03/14 00:45:57;;;;;;;1.97;1.10;;;12.00;1.00;;;;;;5029890;28;20428;-69
2023/03/14 00:48:22;;;;;;;1.50;1.23;;;12.00;1.00;;;;;;5029234;28;20743;-69
2023/03/14 00:50:48;;;;;;;1.30;1.03;;;12.00;1.00;;;;;;5029456;28;20189;-71
2023/03/14 00:53:14;;;;;;;2.07;1.17;;;12.00;1.00;;;;;;5029656;28;20183;-70
2023/03/14 00:55:42;;;;;;;4.30;1.23;;;12.00;1.00;;;;;;5029802;28;20277;-69
2023/03/14 00:58:08;;;;;;;5.00;1.30;;;12.00;1.00;;;;;;5027134;28;20249;-69
2023/03/14 01:00:33;;;;;;;3.77;1.20;;;12.00;1.00;;;;;;5026932;28;20486;-69
2023/03/14 01:02:59;;;;;;;2.27;1.00;;;12.00;1.00;;;;;;5029714;28;20664;-69
2023/03/14 01:05:25;;;;;;;1.80;1.30;;;12.00;1.00;;;;;;5030689;28;20204;-69
2023/03/14 01:07:50;;;;;;;1.50;1.40;;;12.10;1.00;;;;;;5026219;28;20259;-69
2023/03/14 01:10:16;;;;;;;1.30;1.20;;;12.10;1.00;;;;;;5027695;28;20364;-69
2023/03/14 01:12:42;;;;;;;1.90;1.10;;;12.10;1.00;;;;;;5028794;28;20671;-70
2023/03/14 01:15:08;;;;;;;2.37;1.00;;;12.20;1.00;;;;;;5027264;28;20476;-70
2023/03/14 01:17:33;;;;;;;1.77;1.13;;;12.20;1.00;;;;;;5027080;28;20296;-71
2023/03/14 01:20:00;;;;;;;2.20;1.10;;;11.40;1.00;;;;;;5026588;28;21038;-69
2023/03/14 01:22:26;;;;;;;2.20;0.90;;;12.20;1.00;;;;;;5027188;28;20217;-69
2023/03/14 01:24:52;;;;;;;1.30;1.00;;;12.30;1.00;;;;;;5027605;28;20436;-69
2023/03/14 01:27:17;;;;;;;1.87;1.30;;;12.20;1.00;;;;;;5027043;28;20198;-69
2023/03/14 01:29:43;;;;;;;3.20;1.47;;;12.00;1.00;;;;;;5026123;28;20205;-69
2023/03/14 01:32:08;;;;;;;1.40;1.27;;;11.90;1.00;;;;;;5027679;28;20560;-70
2023/03/14 01:34:34;;;;;;;2.03;1.13;;;11.90;1.00;;;;;;5025004;28;20256;-69
2023/03/14 01:36:59;;;;;;;3.77;1.50;;;12.00;1.00;;;;;;5027320;28;20643;-69
2023/03/14 01:39:25;;;;;;;2.57;1.40;;;12.00;1.00;;;;;;5027652;28;20209;-70
2023/03/14 01:41:50;;;;;;;1.73;1.10;;;12.00;1.00;;;;;;5026823;28;20288;-69
2023/03/14 01:44:16;;;;;;;1.43;1.10;;;11.90;1.00;;;;;;5028154;28;20244;-70
2023/03/14 01:46:45;;;;;;;3.13;1.30;;;11.90;1.00;;;;;;5028507;28;20181;-69
2023/03/14 01:49:13;;;;;;;2.00;1.20;;;11.90;1.00;;;;;;5026484;28;20214;-69
2023/03/14 01:51:46;;;;;;;1.63;1.00;;;11.90;1.00;;;;;;5024981;28;20433;-69
2023/03/14 01:54:17;;;;;;;3.03;1.20;;;11.90;1.00;;;;;;5027411;28;20424;-69
2023/03/14 01:56:46;;;;;;;2.13;1.13;;;12.00;1.00;;;;;;5027470;28;20501;-69
2023/03/14 01:59:12;;;;;;;2.80;1.40;;;12.00;1.00;;;;;;5028220;28;20464;-71
2023/03/14 02:01:42;;;;;;;1.70;1.10;;;12.00;1.00;;;;;;5026175;28;20463;-70
2023/03/14 02:04:09;;;;;;;1.80;1.10;;;12.30;1.00;;;;;;5028870;28;20420;-68
2023/03/14 02:06:45;;;;;;;5.20;1.10;;;12.00;1.00;;;;;;5026942;28;20445;-69
2023/03/14 02:09:10;;;;;;;1.93;1.13;;;12.00;1.00;;;;;;5028335;28;20444;-71
2023/03/14 02:11:36;;;;;;;3.10;1.30;;;12.00;1.00;;;;;;5025633;28;20776;-70
2023/03/14 02:14:02;;;;;;;1.50;1.30;;;11.90;1.00;;;;;;5029010;28;20498;-69
2023/03/14 02:16:27;;;;;;;1.60;1.23;;;12.00;1.00;;;;;;5027130;28;20193;-69
2023/03/14 02:18:53;;;;;;;2.33;1.20;;;11.90;1.00;;;;;;5027099;28;20470;-69
2023/03/14 02:21:33;;;;;;;2.20;1.27;;;11.90;1.00;;;;;;5031510;28;20606;-70
2023/03/14 02:24:09;;;;;;;4.53;1.50;;;12.00;1.00;;;;;;5031601;28;20181;-69
2023/03/14 02:26:41;;;;;;;2.00;1.20;;;12.00;1.00;;;;;;5028567;28;20439;-69
2023/03/14 02:29:07;;;;;;;2.27;1.23;;;12.00;1.00;;;;;;5030812;28;20456;-69
2023/03/14 02:31:33;;;;;;;2.80;1.10;;;11.90;1.00;;;;;;5037295;28;20435;-66
2023/03/14 02:34:00;;;;;;;1.93;1.00;;;11.90;1.00;;;;;;5028734;28;20205;-70
2023/03/14 02:36:27;;;;;;;4.10;1.40;;;11.90;1.00;;;;;;5031853;28;20511;-70
2023/03/14 02:39:06;;;;;;;2.30;1.10;;;11.90;1.00;;;;;;5030667;28;20464;-70
2023/03/14 02:41:32;;;;;;;1.00;0.90;;;11.80;1.00;;;;;;5044930;28;20491;-69
2023/03/14 02:43:57;;;;;;;2.23;1.40;;;11.80;1.00;;;;;;5027473;28;20823;-70
2023/03/14 02:46:23;;;;;;;2.00;1.10;;;11.80;1.00;;;;;;5030216;28;20174;-69
2023/03/14 02:48:56;;;;;;;2.27;1.30;;;11.70;1.00;;;;;;5029936;28;20202;-69
2023/03/14 02:51:23;;;;;;;2.53;1.10;;;11.80;1.00;;;;;;5030118;28;20178;-70
2023/03/14 02:53:49;;;;;;;1.13;1.03;;;11.70;1.00;;;;;;5031217;28;20502;-69
2023/03/14 02:56:14;;;;;;;4.40;1.53;;;11.70;1.00;;;;;;5031350;28;20918;-69
2023/03/14 02:58:40;;;;;;;3.60;1.70;;;11.60;1.00;;;;;;5031217;28;20214;-69
2023/03/14 03:01:06;;;;;;;1.83;1.20;;;11.70;1.00;;;;;;5031619;28;22148;-69
2023/03/14 03:03:32;;;;;;;2.53;1.37;;;11.70;1.00;;;;;;5031298;28;20238;-69
2023/03/14 03:05:58;;;;;;;2.60;1.43;;;11.60;1.00;;;;;;5030846;28;20535;-68
2023/03/14 03:08:26;;;;;;;1.13;1.00;;;11.60;1.00;;;;;;5032324;28;20205;-69
2023/03/14 03:10:51;;;;;;;1.83;1.20;;;11.70;1.00;;;;;;5028810;28;20910;-69
2023/03/14 03:13:18;;;;;;;2.43;1.30;;;11.60;1.00;;;;;;5030174;28;20436;-71
2023/03/14 03:15:43;;;;;;;2.40;1.30;;;11.60;1.00;;;;;;5030826;28;20182;-69
2023/03/14 03:18:09;;;;;;;1.70;1.10;;;11.60;1.00;;;;;;5027410;28;20827;-69
2023/03/14 03:20:35;;;;;;;1.73;1.27;;;11.70;1.00;;;;;;5030912;28;20194;-69
2023/03/14 03:23:00;;;;;;;1.80;1.30;;;11.60;1.00;;;;;;5029877;28;20696;-69
2023/03/14 03:25:27;;;;;;;2.60;1.40;;;11.60;1.00;;;;;;5030635;28;20288;-69
2023/03/14 03:27:53;;;;;;;3.33;1.20;;;11.60;1.00;;;;;;5027673;28;20205;-69
2023/03/14 03:30:18;;;;;;;3.00;1.23;;;11.70;1.00;;;;;;5028901;28;20511;-69
2023/03/14 03:32:44;;;;;;;2.27;1.13;;;11.70;1.00;;;;;;5029627;28;20598;-69
2023/03/14 03:35:10;;;;;;;3.63;1.30;;;11.70;1.00;;;;;;5030671;28;20352;-68
2023/03/14 03:37:36;;;;;;;4.33;1.40;;;11.70;1.00;;;;;;5029584;28;20197;-68
2023/03/14 03:40:06;;;;;;;1.73;1.00;;;11.70;1.00;;;;;;5021623;28;20201;-69
2023/03/14 03:42:32;;;;;;;3.93;1.10;;;11.70;1.00;;;;;;5029914;28;20287;-69
2023/03/14 03:44:59;;;;;;;2.03;1.20;;;11.60;1.00;;;;;;5029068;28;20834;-68
2023/03/14 03:47:25;;;;;;;3.00;1.30;;;11.60;1.00;;;;;;5030305;28;20420;-69
2023/03/14 03:49:50;;;;;;;1.97;1.33;;;11.60;1.00;;;;;;5028509;28;20468;-69
2023/03/14 03:52:16;;;;;;;3.50;1.60;;;11.60;1.00;;;;;;5030687;28;20177;-69
2023/03/14 03:54:42;;;;;;;2.90;1.30;;;11.60;1.00;;;;;;5029086;28;20224;-69
2023/03/14 03:57:07;;;;;;;2.90;1.20;;;11.50;1.00;;;;;;5030877;28;20181;-69
2023/03/14 03:59:33;;;;;;;2.50;1.20;;;11.50;1.00;;;;;;5028863;28;20687;-69
2023/03/14 04:01:58;;;;;;;3.83;1.60;;;11.60;1.00;;;;;;5030587;28;20667;-69
2023/03/14 04:04:24;;;;;;;4.40;1.37;;;11.60;1.00;;;;;;5029452;28;20668;-69
2023/03/14 04:06:49;;;;;;;2.20;1.20;;;11.50;1.00;;;;;;5029451;28;20729;-69
2023/03/14 04:09:15;;;;;;;2.40;1.20;;;;;;;;;;5029172;28;20619;-69
2023/03/14 04:11:41;;;;;;;3.23;1.30;;;11.50;1.00;;;;;;5029084;28;20239;-69
2023/03/14 04:14:07;;;;;;;2.23;1.30;;;11.60;1.00;;;;;;5044703;28;20449;-69
2023/03/14 04:16:33;;;;;;;3.37;1.37;;;11.50;1.00;;;;;;5028325;28;20525;-69
2023/03/14 04:18:59;;;;;;;2.23;1.27;;;11.50;1.00;;;;;;5028154;28;20240;-69
2023/03/14 04:21:24;;;;;;;2.80;1.20;;;11.40;1.00;;;;;;5028390;28;20500;-69
2023/03/14 04:23:50;;;;;;;2.97;1.10;;;11.50;1.00;;;;;;5028691;28;20232;-70
2023/03/14 04:26:16;;;;;;;3.10;1.07;;;11.60;1.00;;;;;;5028498;28;20170;-69
2023/03/14 04:28:42;;;;;;;4.67;1.70;;;11.70;1.00;;;;;;5026416;28;20202;-69
2023/03/14 04:31:10;;;;;;;4.00;1.13;;;11.70;1.00;;;;;;5027138;28;20962;-69
2023/03/14 04:33:37;;;;;;;2.63;1.50;;;11.80;1.00;;;;;;5028665;28;20207;-69
2023/03/14 04:36:04;;;;;;;4.70;1.47;;;11.80;1.00;;;;;;5029164;28;20870;-69
2023/03/14 04:38:29;;;;;;;7.00;1.40;;;11.70;1.00;;;;;;5028574;28;20591;-69
2023/03/14 04:40:55;;;;;;;2.60;1.40;;;11.70;1.00;;;;;;5028552;28;20526;-69
2023/03/14 04:43:20;;;;;;;2.27;1.50;;;11.70;1.00;;;;;;5027400;28;20178;-66
2023/03/14 04:45:46;;;;;;;1.87;1.27;;;11.70;1.00;;;;;;5026811;28;20192;-69
2023/03/14 04:48:12;;;;;;;3.03;1.33;;;11.80;1.00;;;;;;5028311;28;20213;-70
2023/03/14 04:50:38;;;;;;;3.47;1.47;;;11.70;1.00;;;;;;5027156;28;20197;-70
2023/03/14 04:53:04;;;;;;;2.40;1.37;;;11.70;1.00;;;;;;5026758;28;20433;-69
2023/03/14 04:55:32;;;;;;;3.50;1.53;;;11.70;1.00;;;;;;5029235;28;20328;-69
2023/03/14 04:57:57;;;;;;;2.57;1.30;;;11.60;1.00;;;;;;5026489;28;20221;-70
2023/03/14 05:00:23;;;;;;;1.97;1.10;;;11.50;1.00;;;;;;5021727;28;20807;-69
2023/03/14 05:02:48;;;;;;;3.33;1.20;;;11.40;1.00;;;;;;5028702;28;20216;-69
2023/03/14 05:05:14;;;;;;;2.67;1.37;;;11.50;1.00;;;;;;5026992;28;20552;-69
2023/03/14 05:07:39;;;;;;;5.67;1.20;;;11.60;1.00;;;;;;5029662;28;20190;-69
2023/03/14 05:10:05;;;;;;;6.03;1.60;;;11.70;1.00;;;;;;5026115;28;20182;-70
2023/03/14 05:12:30;;;;;;;2.50;1.17;;;11.80;1.00;;;;;;5027676;28;20190;-69
2023/03/14 05:14:56;;;;;;;4.17;1.47;;;11.80;1.00;;;;;;5028591;28;20603;-69
2023/03/14 05:17:21;;;;;;;2.70;1.37;;;11.80;1.00;;;;;;5026951;28;20186;-69
2023/03/14 05:19:47;;;;;;;4.60;1.30;;;11.80;1.00;;;;;;5026551;28;20293;-70
2023/03/14 05:22:13;;;;;;;3.23;1.10;;;11.90;1.00;;;;;;5028220;28;20205;-69
2023/03/14 05:24:38;;;;;;;3.80;1.20;;;11.90;1.00;;;;;;5028299;28;20184;-69
2023/03/14 05:27:04;;;;;;;4.40;1.20;;;11.90;1.00;;;;;;5042745;28;20177;-69
2023/03/14 05:29:30;;;;;;;4.67;1.57;;;11.90;1.00;;;;;;5026386;28;20516;-69
2023/03/14 05:31:55;;;;;;;3.47;1.33;;;11.90;1.00;;;;;;5033285;28;20189;-68
2023/03/14 05:34:21;;;;;;;3.30;1.60;;;11.90;1.00;;;;;;5027206;28;20610;-68
2023/03/14 05:36:47;;;;;;;5.13;1.50;;;11.90;1.00;;;;;;5027333;28;20744;-69
2023/03/14 05:39:12;;;;;;;1.80;1.20;;;11.90;1.00;;;;;;5028892;28;20213;-72
2023/03/14 05:41:38;;;;;;;4.87;1.43;;;11.90;1.00;;;;;;5027423;28;20240;-69
2023/03/14 05:44:03;;;;;;;4.20;1.53;;;11.90;1.00;;;;;;5026931;28;20664;-69
2023/03/14 05:46:30;;;;;;;3.47;1.27;;;11.90;1.00;;;;;;5026975;28;20181;-69
2023/03/14 05:48:57;;;;;;;2.80;1.20;;;11.90;1.00;;;;;;5027162;28;20193;-65
2023/03/14 05:51:22;;;;;;;2.43;1.47;;;11.90;1.00;;;;;;5028641;28;20922;-69
2023/03/14 05:53:48;;;;;;;3.10;1.20;;;11.90;1.00;;;;;;5028133;28;20440;-69
2023/03/14 05:56:13;;;;;;;4.63;1.00;;;11.90;1.00;;;;;;5031404;28;20182;-69
2023/03/14 05:58:39;;;;;;;3.80;1.37;;;11.90;1.00;;;;;;5031203;28;20220;-69
2023/03/14 06:01:05;;;;;;;5.13;1.03;;;13.20;1.00;;;;;;5030246;28;20186;-69
2023/03/14 06:03:31;;;;;;;2.93;1.20;;;11.90;1.00;;;;;;5031642;28;20186;-69
2023/03/14 06:05:57;;;;;;;4.43;1.37;;;11.90;1.00;;;;;;5047347;28;20523;-69
2023/03/14 06:08:23;;;;;;;3.70;1.20;;;11.90;1.00;;;;;;5030965;28;20827;-69
2023/03/14 06:10:49;;;;;;;1.57;1.10;;;;;;;;;;5031008;28;20679;-69
2023/03/14 06:13:15;;;;;;;5.77;1.60;;;12.00;1.00;;;;;;5031129;28;20197;-69
2023/03/14 06:15:41;;;;;;;7.83;1.43;;;12.00;1.00;;;;;;5030392;28;20190;-69
2023/03/14 06:18:06;;;;;;;2.30;1.17;;;12.00;1.00;;;;;;5029277;28;20452;-69
2023/03/14 06:20:33;;;;;;;3.00;1.20;;;12.00;1.00;;;;;;5031673;28;20472;-71
2023/03/14 06:22:58;;;;;;;3.53;1.27;;;12.00;1.00;;;;;;5031011;28;20279;-70
2023/03/14 06:25:24;;;;;;;2.27;1.27;;;12.10;1.00;;;;;;5031095;28;20923;-69
2023/03/14 06:27:49;;;;;;;2.33;1.10;;;12.10;1.00;;;;;;5030718;28;20328;-69
2023/03/14 06:30:15;;;;;;;4.60;1.30;;;12.10;1.00;;;;;;5027621;28;20178;-69
2023/03/14 06:32:41;;;;;;;5.80;1.37;;;12.10;1.00;;;;;;5029872;28;20197;-69
2023/03/14 06:35:07;;;;;;;2.40;0.80;;;12.20;1.00;;;;;;5031349;28;20428;-68
2023/03/14 06:37:32;;;;;;;1.50;1.10;;;12.20;1.00;;;;;;5031320;28;20189;-69
2023/03/14 06:39:58;;;;;;;6.20;1.20;;;12.20;1.00;;;;;;5030965;28;20193;-70
2023/03/14 06:42:23;;;;;;;2.80;1.13;;;12.30;1.00;;;;;;5036645;28;20372;-70
2023/03/14 06:44:49;;;;;;;5.70;1.30;;;12.30;1.00;;;;;;5035861;28;20180;-70
2023/03/14 06:47:14;;;;;;;4.33;1.40;;;12.40;1.00;;;;;;5031248;28;20275;-69
2023/03/14 06:49:40;;;;;;;7.30;2.33;;;12.40;1.00;;;;;;5031260;28;20258;-69
2023/03/14 06:52:05;;;;;;;3.00;0.80;;;12.50;1.00;;;;;;5031142;28;20218;-69
2023/03/14 06:54:31;;;;;;;6.27;1.10;;;12.50;1.00;;;;;;5031666;28;20216;-68
2023/03/14 06:56:57;;;;;;;3.60;1.30;;;12.50;1.00;;;;;;5027512;28;20221;-71
2023/03/14 06:59:22;;;;;;;3.17;1.10;;;12.40;1.00;;;;;;5031518;28;20227;-70
2023/03/14 07:01:49;;;;;;;4.47;1.33;;;12.40;1.00;;;;;;5046280;28;20239;-66
2023/03/14 07:04:14;;;;;;;1.80;1.20;;;12.40;1.00;;;;;;5029454;28;20537;-69
2023/03/14 07:06:44;;;;;;;3.80;1.30;;;12.30;1.00;;;;;;5042526;22;20493;-69
2023/03/14 07:09:10;;;;;;;6.17;1.20;;;12.30;1.00;;;;;;5028957;28;20178;-68
2023/03/14 07:11:35;;;;;;;3.47;1.33;;;12.30;1.00;;;;;;5028861;28;20451;-69
2023/03/14 07:14:01;;;;;;;6.77;1.23;;;12.30;1.00;;;;;;5026847;28;20444;-69
2023/03/14 07:16:28;;;;;;;2.73;1.23;;;12.30;1.00;;;;;;5031877;28;20577;-69
2023/03/14 07:18:54;;;;;;;3.23;1.13;;;12.30;1.00;;;;;;5028188;28;20273;-68
2023/03/14 07:21:19;;;;;;;1.73;1.00;;;12.30;1.00;;;;;;5032682;28;21034;-73
2023/03/14 07:23:45;;;;;;;3.63;1.20;;;12.20;1.00;;;;;;5030630;28;20204;-71
2023/03/14 07:26:10;;;;;;;2.07;1.30;;;12.30;1.00;;;;;;5028234;28;20296;-69
2023/03/14 07:28:36;;;;;;;1.27;0.90;;;12.40;1.00;;;;;;5028292;28;20178;-69
2023/03/14 07:31:01;;;;;;;1.53;1.10;;;12.40;1.00;;;;;;5025379;28;20177;-69
2023/03/14 07:33:27;;;;;;;5.80;1.03;;;12.40;1.00;;;;;;5031520;28;20178;-69
2023/03/14 07:35:52;;;;;;;2.50;1.20;;;12.50;1.00;;;;;;5029962;28;20210;-68
2023/03/14 07:38:18;;;;;;;2.87;1.20;;;12.50;1.00;;;;;;5029732;28;20565;-69
2023/03/14 07:40:44;;;;;;;4.10;1.03;;;12.60;1.00;;;;;;5029875;28;20189;-69
2023/03/14 07:43:09;;;;;;;1.47;0.83;;;12.80;1.00;;;;;;5030177;28;20214;-68
2023/03/14 07:45:35;;;;;;;4.90;0.90;;;12.80;1.00;;;;;;5030588;28;20210;-69
2023/03/14 07:48:01;;;;;;;2.40;1.10;;;12.80;1.00;;;;;;5028453;28;20212;-68
2023/03/14 07:50:27;;;;;;;5.90;1.10;;;12.90;1.00;;;;;;5028738;28;20214;-69
2023/03/14 07:52:55;;;;;;;1.63;0.90;;;13.10;1.00;;;;;;5025393;28;20846;-68
2023/03/14 07:55:20;;;;;;;3.37;1.20;;;13.10;1.00;;;;;;5027748;28;20251;-69
2023/03/14 07:57:47;;;;;;;2.53;1.17;;;13.20;1.00;;;;;;5025257;28;20950;-69
2023/03/14 08:00:16;;;;;;;8.77;0.93;;;13.10;1.00;;;;;;5011775;28;20185;-69
2023/03/14 08:02:42;;;;;;;2.70;0.97;;;13.10;1.00;;;;;;5023458;28;21080;-69
2023/03/14 08:05:08;;;;;;;2.20;1.20;;;13.10;1.00;;;;;;5023650;28;20528;-69
2023/03/14 08:07:33;;;;;;;4.40;1.37;;;13.10;1.00;;;;;;5025862;28;20212;-69
2023/03/14 08:09:59;;;;;;;2.23;1.00;;;13.20;1.00;;;;;;5029485;28;20280;-69
2023/03/14 08:12:24;;;;;;;2.10;1.20;;;13.30;1.00;;;;;;5025003;28;20201;-69
2023/03/14 08:14:50;;;;;;;1.30;0.80;;;13.30;1.00;;;;;;5024883;28;20660;-70
2023/03/14 08:17:15;;;;;;;1.43;1.00;;;13.40;1.00;;;;;;5026819;28;20213;-68
2023/03/14 08:19:41;;;;;;;2.17;1.13;;;13.60;1.00;;;;;;5029547;28;20271;-68
2023/03/14 08:22:07;;;;;;;2.03;1.30;;;13.70;1.00;;;;;;5029266;28;20205;-69
2023/03/14 08:24:33;;;;;;;1.80;1.03;;;13.80;1.00;;;;;;5027412;28;20811;-68
2023/03/14 08:26:58;;;;;;;6.00;1.13;;;13.70;1.00;;;;;;5029837;28;20202;-69
2023/03/14 08:29:24;;;;;;;2.13;1.10;;;13.70;1.00;;;;;;5023921;28;20197;-69
2023/03/14 08:31:49;;;;;;;1.50;1.13;;;13.80;1.00;;;;;;5034409;28;20181;-70
2023/03/14 08:34:15;;;;;;;2.13;1.10;;;13.90;1.00;;;;;;5023153;28;20186;-69
2023/03/14 08:36:41;;;;;;;1.73;1.00;;;14.00;1.00;;;;;;5030292;28;20213;-69
2023/03/14 08:39:07;;;;;;;2.53;1.57;;;13.80;1.00;;;;;;5029164;28;20239;-69
2023/03/14 08:41:39;;;;;;;2.80;1.00;;;14.00;1.00;;;;;;5030123;28;20464;-69
2023/03/14 08:44:08;;;;;;;2.70;1.10;;;14.10;1.00;;;;;;5029740;28;20973;-69
2023/03/14 08:46:34;;;;;;;2.80;1.10;;;14.40;1.00;;;;;;5029773;28;20437;-69
2023/03/14 08:48:59;;;;;;;1.30;0.90;;;14.50;1.00;;;;;;5027926;28;20413;-69
2023/03/14 08:51:25;;;;;;;1.40;0.80;;;14.40;1.00;;;;;;5030069;28;20192;-69
2023/03/14 08:53:50;;;;;;;3.10;1.10;;;14.30;1.00;;;;;;5029723;28;20236;-69
2023/03/14 08:56:16;;;;;;;2.30;0.80;;;14.20;1.00;;;;;;5027374;28;20216;-69
2023/03/14 08:58:42;;;;;;;1.40;0.97;;;14.20;1.00;;;;;;5029789;28;20560;-69
2023/03/14 09:01:09;;;;;;;4.40;1.00;;;14.20;1.00;;;;;;5020676;28;20197;-69
2023/03/14 09:03:35;;;;;;;1.73;0.90;;;14.20;1.00;;;;;;5029979;28;20452;-69
2023/03/14 09:06:05;;;;;;;1.43;0.80;;;13.90;1.00;;;;;;5027581;28;20494;-69
2023/03/14 09:08:31;;;;;;;2.33;0.90;;;14.20;1.00;;;;;;5029450;28;20197;-69
2023/03/14 09:10:57;;;;;;;1.17;0.90;;;14.00;1.00;;;;;;5024525;28;20428;-68
2023/03/14 09:13:22;;;;;;;1.57;0.90;;;13.90;1.00;;;;;;5026079;28;20177;-69
2023/03/14 09:15:55;;;;;;;1.07;0.80;;;13.70;1.00;;;;;;5028851;28;20584;-69
2023/03/14 09:18:22;;;;;;;1.20;0.90;;;13.60;1.00;;;;;;5021567;28;20178;-69
2023/03/14 09:20:48;;;;;;;1.40;0.80;;;13.40;1.00;;;;;;5023642;28;20444;-68
2023/03/14 09:23:13;;;;;;;1.20;0.90;;;13.20;1.00;;;;;;5024523;28;20991;-68
2023/03/14 09:25:39;;;;;;;1.50;0.87;;;13.20;1.00;;;;;;5024375;28;20216;-68
2023/03/14 09:28:04;;;;;;;1.20;0.90;;;12.90;1.00;;;;;;5028228;28;20655;-68
2023/03/14 09:30:30;;;;;;;1.40;0.80;;;12.90;1.00;;;;;;5029003;28;20263;-69
2023/03/14 09:32:57;;;;;;;1.87;0.80;;;13.10;1.00;;;;;;5029590;28;20272;-69
2023/03/14 09:35:22;;;;;;;1.87;1.10;;;13.20;1.00;;;;;;5021104;28;20182;-69
2023/03/14 09:37:48;;;;;;;1.50;1.00;;;13.50;1.00;;;;;;5028593;28;20436;-69
2023/03/14 09:40:16;;;;;;;1.50;0.90;;;13.60;1.00;;;;;;5028035;28;20194;-68
2023/03/14 09:42:42;;;;;;;1.90;1.10;;;13.70;1.00;;;;;;5027331;28;20212;-68
2023/03/14 09:45:21;;;;;;;3.67;0.90;;;13.60;1.00;;;;;;5026928;28;20444;-69
2023/03/14 09:47:47;;;;;;;1.20;0.90;;;13.80;1.00;;;;;;5027639;28;20721;-68
2023/03/14 09:50:16;;;;;;;2.20;1.00;;;13.80;1.00;;;;;;5031217;28;20501;-68
2023/03/14 09:52:47;;;;;;;1.20;0.80;;;13.90;1.00;;;;;;5025734;28;20444;-69
2023/03/14 09:55:19;;;;;;;1.70;0.97;;;13.80;1.00;;;;;;5028755;28;20902;-70
2023/03/14 09:57:47;;;;;;;1.73;0.90;;;13.80;1.00;;;;;;5026898;28;20447;-70
2023/03/14 10:00:19;;;;;;;1.73;1.03;;;14.10;1.00;;;;;;5027386;28;20472;-69
2023/03/14 10:02:56;;;;;;;1.63;0.90;;;14.00;1.00;;;;;;5026643;28;20486;-68
2023/03/14 10:05:24;;;;;;;1.43;0.90;;;14.20;1.00;;;;;;5027052;28;20449;-69
2023/03/14 10:07:50;;;;;;;3.50;0.90;;;13.70;1.00;;;;;;5026864;28;20441;-69
2023/03/14 10:10:22;;;;;;;2.60;1.00;;;13.70;1.00;;;;;;5027167;28;20437;-69
2023/03/14 10:13:11;;;;;;;1.00;0.83;;;13.60;1.00;;;;;;5029178;28;20535;-69
2023/03/14 10:15:37;;;;;;;1.50;0.80;;;13.70;1.00;;;;;;5022453;28;20467;-69
2023/03/14 10:18:12;;;;;;;1.20;0.73;;;13.70;1.00;;;;;;5028481;28;21000;-69
2023/03/14 10:20:43;;;;;;;0.90;0.60;;;13.70;1.00;;;;;;5028989;28;20933;-69
2023/03/14 10:23:12;;;;;;;1.10;0.80;;;13.70;1.00;;;;;;5028298;28;20491;-69
2023/03/14 10:25:43;;;;;;;1.10;0.77;;;13.70;1.00;;;;;;5029201;28;20525;-69
2023/03/14 10:28:33;;;;;;;1.10;0.70;;;13.50;1.00;;;;;;5027259;28;20428;-69
2023/03/14 10:31:00;;;;;;;0.90;0.70;;;13.80;1.00;;;;;;5024896;28;21025;-70
2023/03/14 10:33:27;;;;;;;2.40;0.80;;;13.50;1.00;;;;;;5025320;28;20444;-69
2023/03/14 10:36:02;;;;;;;1.60;0.80;;;13.30;1.00;;;;;;5028342;28;20460;-69
2023/03/14 10:38:33;;;;;;;1.67;0.70;;;13.50;1.00;;;;;;5028089;28;20432;-69
2023/03/14 10:40:59;;;;;;;4.43;0.87;;;13.30;1.00;;;;;;5029194;28;20436;-69
2023/03/14 10:43:30;;;;;;;1.50;0.80;;;13.30;1.00;;;;;;5031075;28;20835;-69
2023/03/14 10:46:17;;;;;;;1.80;0.83;;;13.20;1.00;;;;;;5031867;28;20456;-70
2023/03/14 10:48:45;;;;;;;1.37;0.87;;;13.20;1.00;;;;;;5026539;28;20432;-70
2023/03/14 10:51:16;;;;;;;1.10;0.80;;;13.00;1.00;;;;;;5032053;28;20448;-70
2023/03/14 10:53:47;;;;;;;1.97;0.80;;;13.10;1.00;;;;;;5031227;28;20440;-70
2023/03/14 10:56:19;;;;;;;1.50;0.83;;;13.10;1.00;;;;;;5031813;28;20455;-70
2023/03/14 10:58:50;;;;;;;1.00;0.70;;;13.10;1.00;;;;;;5031286;28;20436;-70
2023/03/14 11:01:31;;;;;;;1.20;0.90;;;12.80;1.00;;;;;;5035604;28;20450;-69
2023/03/14 11:04:04;;;;;;;1.47;0.80;;;12.60;1.00;;;;;;5032356;28;20483;-70
2023/03/14 11:06:41;;;;;;;1.00;0.60;;;12.20;1.00;;;;;;5029082;28;20551;-70
2023/03/14 11:09:29;;;;;;;1.50;0.90;;;12.00;1.00;;;;;;5031257;28;20432;-69
2023/03/14 11:12:01;;;;;;;1.07;0.80;;;11.70;1.00;;;;;;5031947;28;20420;-69
2023/03/14 11:14:38;;;;;;;3.73;1.00;;;11.60;1.00;;;;;;5023565;28;20779;-69
2023/03/14 11:17:31;;;;;;;2.03;0.90;;;11.50;1.00;;;;;;5030847;28;20526;-71
2023/03/14 11:20:15;;;;;;;1.90;0.90;;;11.60;1.00;;;;;;5026268;28;20527;-69
2023/03/14 11:22:50;;;;;;;1.53;0.80;;;11.50;1.00;;;;;;5030325;28;20474;-69
2023/03/14 11:25:30;;;;;;;1.50;0.90;;;11.30;1.00;;;;;;5030827;28;20512;-69
2023/03/14 11:28:18;;;;;;;1.50;0.93;;;11.20;1.00;;;;;;5028936;28;20444;-68
2023/03/14 11:30:55;;;;;;;1.20;1.00;;;11.20;1.00;;;;;;5024908;28;20432;-69
2023/03/14 11:33:37;;;;;;;1.20;1.00;;;11.20;1.00;;;;;;5031142;28;20691;-69
2023/03/14 11:36:11;;;;;;;1.60;1.10;;;11.30;1.00;;;;;;5028003;28;20456;-69
2023/03/14 11:38:50;;;;;;;1.10;0.80;;;11.40;1.00;;;;;;5024823;28;20438;-68
2023/03/14 11:41:22;;;;;;;1.00;0.80;;;11.40;1.00;;;;;;5030117;28;20446;-69
2023/03/14 11:43:52;;;;;;;1.80;1.43;;;11.50;1.00;;;;;;5029819;28;20444;-69
2023/03/14 11:46:26;;;;;;;1.13;0.90;;;11.50;1.00;;;;;;5027773;28;20457;-69
2023/03/14 11:49:10;;;;;;;1.20;0.87;;;11.60;1.00;;;;;;5029051;28;20494;-69
2023/03/14 11:51:39;;;;;;;1.40;1.07;;;11.70;1.00;;;;;;5028773;28;20989;-69
2023/03/14 11:54:16;;;;;;;1.10;1.00;;;11.80;1.00;;;;;;5029454;28;20448;-68
2023/03/14 11:56:52;;;;;;;1.83;0.97;;;11.80;1.00;;;;;;5030711;28;20464;-69
2023/03/14 11:59:24;;;;;;;1.20;1.00;;;11.80;1.00;;;;;;5027414;28;20444;-68
2023/03/14 12:01:55;;;;;;;2.80;1.00;;;11.90;1.00;;;;;;5026738;28;21020;-71
2023/03/14 12:04:39;;;;;;;1.10;1.00;;;12.10;1.00;;;;;;5025312;28;20441;-68
2023/03/14 12:07:20;;;;;;;1.50;0.90;;;12.00;1.00;;;;;;5027520;28;20510;-72
2023/03/14 12:09:48;;;;;;;1.00;0.73;;;11.90;1.00;;;;;;5022421;28;20446;-72
2023/03/14 12:12:18;;;;;;;0.90;0.80;;;11.90;1.00;;;;;;5030735;28;20825;-69
2023/03/14 12:14:52;;;;;;;1.10;1.00;;;11.80;1.00;;;;;;5029998;28;20435;-69
2023/03/14 12:17:27;;;;;;;1.00;0.90;;;11.90;1.00;;;;;;5028762;28;20465;-69
2023/03/14 12:20:17;;;;;;;1.30;1.20;;;11.90;1.00;;;;;;5029237;28;20448;-68
2023/03/14 12:22:46;;;;;;;1.13;1.00;;;11.90;1.00;;;;;;5028491;28;20467;-68
2023/03/14 12:25:11;;;;;;;1.00;0.90;;;11.80;1.00;;;;;;5028980;28;20445;-69
2023/03/14 12:28:19;;;;;;;2.10;0.90;;;11.80;1.00;;;;;;5028792;28;20448;-68
2023/03/14 12:30:45;;;;;;;2.13;0.90;;;11.80;1.00;;;;;;5013866;28;20300;-69
2023/03/14 12:33:16;;;;;;;1.23;0.90;;;11.70;1.00;;;;;;5030107;28;20519;-68
2023/03/14 12:35:49;;;;;;;1.20;0.90;;;11.70;1.00;;;;;;5029334;28;20300;-68
2023/03/14 12:38:36;;;;;;;1.60;1.00;;;11.60;1.00;;;;;;5029644;28;20471;-69
2023/03/14 12:41:38;;;;;;;1.10;1.00;;;11.50;1.00;;;;;;5028494;28;20814;-69
2023/03/14 12:44:28;;;;;;;1.10;1.00;;;11.20;1.00;;;;;;5026354;28;20538;-69
2023/03/14 12:46:54;;;;;;;1.30;0.97;;;11.20;1.00;;;;;;5030112;28;20484;-68
2023/03/14 12:49:20;;;;;;;1.27;1.00;;;11.00;1.00;;;;;;5027829;28;20857;-69
2023/03/14 12:51:45;;;;;;;1.20;1.10;;;10.90;1.00;;;;;;5027380;28;20185;-69
2023/03/14 12:54:47;;;;;;;1.20;1.00;;;10.80;1.00;;;;;;5025894;28;20300;-68
2023/03/14 12:57:40;;;;;;;1.30;1.00;;;10.80;1.00;;;;;;5002651;28;20213;-68
2023/03/14 13:00:38;;;;;;;3.80;1.00;;;10.70;1.00;;;;;;5025946;28;20449;-69
2023/03/14 13:03:25;;;;;;;1.37;1.10;;;10.60;1.00;;;;;;5027577;28;20487;-71
2023/03/14 13:06:04;;;;;;;2.33;1.20;;;10.60;1.00;;;;;;5022601;28;20488;-71